M I D A S
Marine Information and Data Acquisition System
Tripno 1018 of the Zeeleeuw from 2005-02-28 08:10:00 to 2005-02-28 16:05:00
Back to CruiseResearch ActivitiesStationsMapUnderway DataData graphs

EquipmentUnitsComments
TimeDGPSUTC
LatitudeDGPSDM.mWGS84
LongitudeDGPSDM.mWGS84
SpeedMeteo Stationm/sRelative wind speed
DirectionMeteo StationdegRelative wind direction
TemperatureMeteo Stationdeg CelciusAir temperature
PressureMeteo StationPaAtmospheric pressure
HumidityMeteo Station%Relative humidity
Missing or incorrect values are displayed as -999
Metereological data collected by the RV Zeeleeuw from 2005-02-28 08:10:00 to 2005-02-28 16:05:00
Time Latitude Longitude Speed Direction Temperature Pressure Humidity
2005-02-28 08:11 51°13.595 2°56.103 1.2 28 -2.2 102790 45
2005-02-28 08:12 51°13.604 2°56.075 -999 36 -2.3 102790 44
2005-02-28 08:13 51°13.633 2°55.975 1.9 167 -2.3 102780 44
2005-02-28 08:14 51°13.685 2°55.854 1.8 189 -2.3 102780 45
2005-02-28 08:15 51°13.741 2°55.739 1.8 167 -2.4 102780 46
2005-02-28 08:16 51°13.76 2°55.685 1 95 -2.4 102780 45
2005-02-28 08:17 51°13.759 2°55.669 1.2 149 -2.4 102780 47
2005-02-28 08:18 51°13.809 2°55.651 1.9 29 -2.3 102780 46
2005-02-28 08:19 51°13.93 2°55.564 3.8 7 -2.3 102780 47
2005-02-28 08:20 51°14.078 2°55.456 3.8 3 -2.4 102780 45
2005-02-28 08:21 51°14.228 2°55.311 4.2 355 -2.4 102780 46
2005-02-28 08:22 51°14.35 2°55.09 4.1 7 -2.5 102780 46
2005-02-28 08:23 51°14.438 2°54.803 4.3 354 -2.4 102770 46
2005-02-28 08:24 51°14.454 2°54.462 5.5 349 -2.4 102760 48
2005-02-28 08:25 51°14.387 2°54.129 8.2 353 -2.3 102760 45
2005-02-28 08:26 51°14.268 2°53.819 7.7 356 -2.3 102750 47
2005-02-28 08:27 51°14.164 2°53.48 8.3 354 -2.3 102750 47
2005-02-28 08:28 51°14.04 2°53.156 8.3 348 -2.3 102750 46
2005-02-28 08:29 51°13.918 2°52.821 7.8 345 -2.3 102750 47
2005-02-28 08:30 51°13.801 2°52.488 7.6 355 -2.3 102740 47
2005-02-28 08:31 51°13.681 2°52.144 7.6 356 -2.3 102750 47
2005-02-28 08:32 51°13.555 2°51.797 8.2 353 -2.3 102750 48
2005-02-28 08:33 51°13.434 2°51.453 7.6 350 -2.3 102750 49
2005-02-28 08:34 51°13.313 2°51.105 8.4 347 -2.3 102740 50
2005-02-28 08:35 51°13.195 2°50.762 8.6 350 -2.3 102740 50
2005-02-28 08:36 51°13.074 2°50.412 8.3 352 -2.3 102750 51
2005-02-28 08:37 51°12.953 2°50.054 8.5 354 -2.4 102750 49
2005-02-28 08:38 51°12.834 2°49.715 8.2 349 -2.3 102750 48
2005-02-28 08:39 51°12.71 2°49.367 8.7 355 -2.3 102760 48
2005-02-28 08:40 51°12.586 2°49.026 7.7 358 -2.3 102750 48
2005-02-28 08:41 51°12.461 2°48.696 7.1 355 -2.3 102750 46
2005-02-28 08:42 51°12.329 2°48.346 8 347 -2.3 102750 46
2005-02-28 08:43 51°12.218 2°47.995 7.4 357 -2.3 102750 47
2005-02-28 08:44 51°12.131 2°47.636 7.2 357 -2.2 102760 45
2005-02-28 08:45 51°12.038 2°47.26 8.6 357 -2.2 102760 46
2005-02-28 08:46 51°11.949 2°46.896 9.3 350 -2.1 102750 49
2005-02-28 08:47 51°11.856 2°46.523 8.5 353 -2.2 102750 48
2005-02-28 08:48 51°11.763 2°46.143 7.3 353 -2.2 102760 47
2005-02-28 08:49 51°11.67 2°45.771 7.5 351 -2.2 102750 46
2005-02-28 08:50 51°11.578 2°45.405 7.3 356 -2.1 102750 46
2005-02-28 08:51 51°11.481 2°45.037 7.9 356 -2.1 102760 45
2005-02-28 08:52 51°11.387 2°44.663 8.1 352 -2.1 102750 45
2005-02-28 08:53 51°11.293 2°44.299 7.4 358 -2 102760 46
2005-02-28 08:54 51°11.203 2°43.939 7.6 356 -2 102750 46
2005-02-28 08:55 51°11.107 2°43.565 8.1 1 -2 102760 45
2005-02-28 08:56 51°11.015 2°43.198 8.1 1 -2 102750 44
2005-02-28 08:57 51°10.924 2°42.832 8.3 4 -2 102750 44
2005-02-28 08:58 51°10.83 2°42.457 7.8 358 -2 102760 45
2005-02-28 08:59 51°10.754 2°42.093 7.5 354 -2 102760 44
2005-02-28 09:00 51°10.716 2°41.705 7.4 358 -2 102750 46
2005-02-28 09:01 51°10.669 2°41.313 7.4 351 -2 102750 44
2005-02-28 09:02 51°10.614 2°40.912 7.3 352 -1.9 102750 45
2005-02-28 09:03 51°10.56 2°40.531 5.9 347 -1.9 102750 45
2005-02-28 09:04 51°10.502 2°40.301 3.6 343 -1.9 102780 45
2005-02-28 09:05 51°10.449 2°40.179 3.2 335 -1.8 102780 45
2005-02-28 09:06 51°10.408 2°39.998 4.8 339 -1.8 102770 43
2005-02-28 09:07 51°10.357 2°39.661 7.5 346 -1.7 102750 44
2005-02-28 09:08 51°10.303 2°39.294 6.4 347 -1.7 102750 46
2005-02-28 09:09 51°10.247 2°38.923 6.8 345 -1.7 102750 45
2005-02-28 09:10 51°10.196 2°38.568 5.8 354 -1.7 102750 44
2005-02-28 09:11 51°10.141 2°38.193 6.7 359 -1.7 102760 45
2005-02-28 09:12 51°10.09 2°37.808 8.8 356 -1.7 102750 45
2005-02-28 09:13 51°10.039 2°37.431 7.4 355 -1.7 102750 44
2005-02-28 09:14 51°9.992 2°37.051 6.9 347 -1.8 102750 44
2005-02-28 09:15 51°9.965 2°36.67 6.4 344 -1.7 102740 45
2005-02-28 09:16 51°9.984 2°36.281 5.9 350 -1.7 102750 44
2005-02-28 09:17 51°10.068 2°35.931 6.5 349 -1.7 102740 43
2005-02-28 09:18 51°10.224 2°35.675 4.3 349 -1.7 102740 47
2005-02-28 09:19 51°10.423 2°35.612 4.7 15 -1.7 102750 45
2005-02-28 09:20 51°10.608 2°35.752 5.3 23 -1.7 102750 49
2005-02-28 09:21 51°10.777 2°35.933 5.9 28 -1.8 102740 47
2005-02-28 09:22 51°10.942 2°36.119 6 23 -1.8 102740 47
2005-02-28 09:23 51°11.108 2°36.314 6.2 24 -1.8 102730 47
2005-02-28 09:24 51°11.27 2°36.505 6.1 18 -1.7 102740 46
2005-02-28 09:25 51°11.433 2°36.691 6.2 22 -1.7 102740 47
2005-02-28 09:26 51°11.594 2°36.87 6.4 21 -1.7 102730 47
2005-02-28 09:27 51°11.757 2°37.057 5.5 17 -1.7 102730 46
2005-02-28 09:28 51°11.92 2°37.24 7.4 20 -1.6 102730 51
2005-02-28 09:29 51°12.083 2°37.418 6.5 29 -1.7 102730 46
2005-02-28 09:30 51°12.245 2°37.6 6.2 25 -1.6 102730 47
2005-02-28 09:31 51°12.407 2°37.782 6 26 -1.7 102740 47
2005-02-28 09:32 51°12.569 2°37.964 6.1 23 -1.6 102720 49
2005-02-28 09:33 51°12.727 2°38.142 5.8 22 -1.6 102720 49
2005-02-28 09:34 51°12.896 2°38.324 6.3 34 -1.5 102720 51
2005-02-28 09:35 51°13.07 2°38.481 6.4 31 -1.5 102720 48
2005-02-28 09:36 51°13.245 2°38.634 5.6 23 -1.6 102720 48
2005-02-28 09:37 51°13.419 2°38.788 5.6 22 -1.5 102710 49
2005-02-28 09:38 51°13.595 2°38.912 5.1 17 -1.5 102710 48
2005-02-28 09:39 51°13.797 2°38.997 4.8 18 -1.5 102720 49
2005-02-28 09:40 51°14 2°39.052 5.9 15 -1.5 102710 48
2005-02-28 09:41 51°14.205 2°39.049 4.2 7 -1.5 102720 48
2005-02-28 09:42 51°14.399 2°38.889 4.9 344 -1.5 102720 48
2005-02-28 09:43 51°14.551 2°38.639 7.1 347 -1.4 102710 50
2005-02-28 09:44 51°14.512 2°38.271 8.9 1 -1.3 102700 50
2005-02-28 09:45 51°14.403 2°37.923 9.4 347 -1.3 102700 49
2005-02-28 09:46 51°14.291 2°37.572 9.2 353 -1.3 102690 50
2005-02-28 09:47 51°14.183 2°37.217 9.5 347 -1.2 102690 49
2005-02-28 09:48 51°14.062 2°36.871 8.8 351 -1.2 102690 49
2005-02-28 09:49 51°13.943 2°36.524 9.8 358 -1.2 102700 49
2005-02-28 09:50 51°13.818 2°36.183 8.5 354 -1.2 102690 48
2005-02-28 09:51 51°13.692 2°35.841 10.1 356 -1.3 102700 49
2005-02-28 09:52 51°13.568 2°35.498 8.3 1 -1.3 102700 48
2005-02-28 09:53 51°13.441 2°35.159 9.7 355 -1.3 102690 50
2005-02-28 09:54 51°13.309 2°34.825 9.7 350 -1.4 102690 49
2005-02-28 09:55 51°13.172 2°34.496 9.1 351 -1.3 102690 50
2005-02-28 09:56 51°13.034 2°34.17 9.4 356 -1.3 102700 50
2005-02-28 09:57 51°12.896 2°33.847 10 349 -1.3 102700 49
2005-02-28 09:58 51°12.759 2°33.52 10.2 358 -1.3 102700 49
2005-02-28 09:59 51°12.622 2°33.197 9 354 -1.3 102700 48
2005-02-28 10:00 51°12.483 2°32.877 8.8 355 -1.3 102700 50
2005-02-28 10:01 51°12.356 2°32.548 8.6 360 -1.3 102700 48
2005-02-28 10:02 51°12.265 2°32.19 8 351 -1.3 102700 49
2005-02-28 10:03 51°12.204 2°31.814 9.5 351 -1.3 102700 48
2005-02-28 10:04 51°12.142 2°31.434 8.5 353 -1.3 102710 48
2005-02-28 10:05 51°12.066 2°31.071 9.4 349 -1.3 102700 49
2005-02-28 10:06 51°11.979 2°30.691 9.2 352 -1.2 102700 48
2005-02-28 10:07 51°11.89 2°30.319 8.8 348 -1.2 102690 48
2005-02-28 10:08 51°11.802 2°29.946 9.7 347 -1.2 102690 50
2005-02-28 10:09 51°11.714 2°29.569 9.6 343 -1.2 102700 47
2005-02-28 10:10 51°11.628 2°29.199 8.9 354 -1.2 102700 47
2005-02-28 10:11 51°11.541 2°28.808 8.5 351 -1.2 102690 48
2005-02-28 10:12 51°11.457 2°28.422 9.6 350 -1.1 102700 47
2005-02-28 10:13 51°11.375 2°28.034 10.7 357 -1.1 102690 48
2005-02-28 10:14 51°11.293 2°27.652 9.7 358 -1.2 102690 49
2005-02-28 10:15 51°11.213 2°27.261 9.8 352 -1.2 102690 48
2005-02-28 10:16 51°11.199 2°26.861 8.8 352 -1.2 102690 49
2005-02-28 10:17 51°11.165 2°26.465 8 344 -1.2 102710 49
2005-02-28 10:18 51°11.127 2°26.073 8.9 350 -1.2 102700 49
2005-02-28 10:19 51°11.1 2°25.689 8.1 344 -1.2 102700 48
2005-02-28 10:20 51°11.15 2°25.322 6.8 343 -1.2 102700 49
2005-02-28 10:21 51°11.322 2°25.153 4.1 10 -1.1 102700 49
2005-02-28 10:22 51°11.503 2°25.273 3.8 27 -1.2 102700 48
2005-02-28 10:23 51°11.667 2°25.455 4.1 28 -1.3 102710 52
2005-02-28 10:24 51°11.825 2°25.657 3.4 19 -1.3 102700 50
2005-02-28 10:25 51°11.977 2°25.863 4.8 10 -1.3 102700 54
2005-02-28 10:26 51°12.133 2°26.066 4.5 24 -1.2 102700 50
2005-02-28 10:27 51°12.295 2°26.252 4.7 16 -1.2 102700 50
2005-02-28 10:28 51°12.459 2°26.434 4.9 6 -1.2 102700 51
2005-02-28 10:29 51°12.619 2°26.626 4.7 34 -1.1 102690 51
2005-02-28 10:30 51°12.777 2°26.816 4.3 33 -1.1 102690 50
2005-02-28 10:31 51°12.938 2°27.007 5.2 35 -1.3 102680 51
2005-02-28 10:32 51°13.096 2°27.194 3.4 32 -1.3 102690 54
2005-02-28 10:33 51°13.256 2°27.381 3 42 -1.3 102690 54
2005-02-28 10:34 51°13.416 2°27.57 4.1 16 -1.3 102690 54
2005-02-28 10:35 51°13.574 2°27.757 2.9 27 -1.3 102690 50
2005-02-28 10:36 51°13.733 2°27.948 2.2 26 -1.4 102670 51
2005-02-28 10:37 51°13.892 2°28.135 4 35 -1.3 102680 51
2005-02-28 10:38 51°14.052 2°28.323 3.9 43 -1.4 102660 51
2005-02-28 10:39 51°14.211 2°28.512 3.7 25 -1.4 102660 54
2005-02-28 10:40 51°14.369 2°28.702 3.4 30 -1.4 102670 51
2005-02-28 10:41 51°14.531 2°28.888 3.1 23 -1.4 102660 53
2005-02-28 10:42 51°14.685 2°29.094 2.9 23 -1.4 102660 52
2005-02-28 10:43 51°14.837 2°29.296 3.7 39 -1.4 102660 51
2005-02-28 10:44 51°14.992 2°29.496 3.3 62 -1.4 102650 52
2005-02-28 10:45 51°15.139 2°29.71 3.5 55 -1.4 102640 51
2005-02-28 10:46 51°15.286 2°29.926 3.6 23 -1.3 102650 55
2005-02-28 10:47 51°15.432 2°30.144 3.8 15 -1.3 102650 54
2005-02-28 10:48 51°15.576 2°30.363 3.4 16 -1.3 102640 54
2005-02-28 10:49 51°15.722 2°30.579 4.1 21 -1.2 102640 53
2005-02-28 10:50 51°15.869 2°30.798 4.9 34 -1.2 102640 52
2005-02-28 10:51 51°16.012 2°31.018 4.1 18 -1.1 102640 53
2005-02-28 10:52 51°16.156 2°31.236 2.9 25 -1.1 102640 52
2005-02-28 10:53 51°16.299 2°31.456 3.2 16 -1.2 102640 51
2005-02-28 10:54 51°16.445 2°31.675 2.7 6 -1.1 102640 53
2005-02-28 10:55 51°16.589 2°31.892 2.4 17 -1 102630 53
2005-02-28 10:56 51°16.733 2°32.112 2.6 55 -0.9 102630 55
2005-02-28 10:57 51°16.874 2°32.328 3 58 -1 102630 52
2005-02-28 10:58 51°17.015 2°32.547 2.5 42 -1 102630 53
2005-02-28 10:59 51°17.162 2°32.755 2.5 29 -1 102630 55
2005-02-28 11:00 51°17.311 2°32.962 2.4 31 -1 102620 53
2005-02-28 11:01 51°17.459 2°33.169 2.5 33 -1 102620 53
2005-02-28 11:02 51°17.608 2°33.375 2.3 18 -1 102630 52
2005-02-28 11:03 51°17.755 2°33.579 3.7 4 -1 102620 53
2005-02-28 11:04 51°17.898 2°33.779 2.4 13 -0.9 102620 52
2005-02-28 11:05 51°18.043 2°33.981 3.3 359 -0.9 102610 53
2005-02-28 11:06 51°18.194 2°34.178 2.3 2 -0.9 102620 52
2005-02-28 11:07 51°18.345 2°34.375 1.5 343 -0.9 102610 51
2005-02-28 11:08 51°18.495 2°34.574 2.5 352 -0.8 102610 53
2005-02-28 11:09 51°18.643 2°34.776 1.9 55 -0.6 102610 56
2005-02-28 11:10 51°18.723 2°35.056 4.3 53 -0.6 102600 54
2005-02-28 11:11 51°18.751 2°35.358 6.2 40 -0.8 102600 53
2005-02-28 11:12 51°18.73 2°35.686 6.3 55 -0.9 102590 55
2005-02-28 11:13 51°18.708 2°36.007 6.9 43 -1 102590 56
2005-02-28 11:14 51°18.676 2°36.322 6.8 63 -1 102580 55
2005-02-28 11:15 51°18.647 2°36.637 7 42 -1 102590 56
2005-02-28 11:16 51°18.619 2°36.949 6.4 51 -1 102580 58
2005-02-28 11:17 51°18.591 2°37.263 7.5 41 -1 102580 54
2005-02-28 11:18 51°18.575 2°37.576 4.9 53 -1.1 102570 56
2005-02-28 11:19 51°18.655 2°37.85 3.7 32 -1.1 102580 55
2005-02-28 11:20 51°18.834 2°37.917 4.6 339 -1.1 102590 53
2005-02-28 11:21 51°19.035 2°37.858 5.2 321 -1 102580 54
2005-02-28 11:22 51°19.239 2°37.809 3.6 320 -0.8 102590 52
2005-02-28 11:23 51°19.445 2°37.787 3.4 334 -0.8 102590 53
2005-02-28 11:24 51°19.65 2°37.77 2.7 330 -0.6 102580 52
2005-02-28 11:25 51°19.854 2°37.754 4.7 328 -0.6 102570 54
2005-02-28 11:26 51°20.063 2°37.733 4.6 319 -0.5 102570 53
2005-02-28 11:27 51°20.268 2°37.712 3.7 321 -0.4 102570 54
2005-02-28 11:28 51°20.472 2°37.691 3.8 312 -0.4 102570 52
2005-02-28 11:29 51°20.676 2°37.671 3.3 226 -0.4 102570 53
2005-02-28 11:30 51°20.879 2°37.647 4.5 302 -0.3 102570 56
2005-02-28 11:31 51°21.084 2°37.619 6.1 37 -0.2 102560 54
2005-02-28 11:32 51°21.288 2°37.594 3.6 308 -0.1 102580 53
2005-02-28 11:33 51°21.492 2°37.568 3.8 302 -0.1 102560 56
2005-02-28 11:34 51°21.7 2°37.537 4 325 -999 102560 55
2005-02-28 11:35 51°21.909 2°37.506 4.1 284 -999 102560 56
2005-02-28 11:36 51°22.116 2°37.518 4.2 333 0.1 102570 56
2005-02-28 11:37 51°22.32 2°37.542 4.9 339 0.1 102560 56
2005-02-28 11:38 51°22.527 2°37.563 4.4 317 -999 102560 51
2005-02-28 11:39 51°22.724 2°37.635 1.9 328 -0.1 102560 51
2005-02-28 11:40 51°22.875 2°37.835 2.9 334 -999 102560 55
2005-02-28 11:41 51°23.004 2°38.07 3.1 1 -999 102550 54
2005-02-28 11:42 51°23.134 2°38.302 2.2 54 0.2 102550 58
2005-02-28 11:43 51°23.266 2°38.533 3.2 68 -999 102540 56
2005-02-28 11:44 51°23.387 2°38.778 2.8 68 -0.2 102540 58
2005-02-28 11:45 51°23.505 2°39.029 2.4 64 -0.3 102540 56
2005-02-28 11:46 51°23.626 2°39.281 3.5 64 -0.5 102530 55
2005-02-28 11:47 51°23.744 2°39.536 2.8 75 -0.5 102520 56
2005-02-28 11:48 51°23.865 2°39.789 2.1 72 -0.6 102540 56
2005-02-28 11:49 51°23.983 2°40.047 2.7 95 -0.6 102530 58
2005-02-28 11:50 51°24.104 2°40.297 1.2 72 -0.5 102520 56
2005-02-28 11:51 51°24.224 2°40.547 1.4 40 -0.5 102530 57
2005-02-28 11:52 51°24.343 2°40.796 3 57 -0.4 102520 58
2005-02-28 11:53 51°24.461 2°41.045 3.2 34 -0.5 102520 56
2005-02-28 11:54 51°24.582 2°41.292 3.4 14 -0.5 102520 54
2005-02-28 11:55 51°24.702 2°41.537 3.8 30 -0.5 102510 56
2005-02-28 11:56 51°24.822 2°41.784 3.3 23 -0.5 102510 55
2005-02-28 11:57 51°24.943 2°42.028 2.3 34 -0.5 102520 53
2005-02-28 11:58 51°25.075 2°42.252 2.5 13 -0.6 102520 55
2005-02-28 11:59 51°25.209 2°42.476 2.2 351 -0.5 102510 53
2005-02-28 12:00 51°25.344 2°42.7 2.2 340 -0.4 102510 52
2005-02-28 12:01 51°25.48 2°42.924 2.7 332 -0.3 102500 53
2005-02-28 12:02 51°25.617 2°43.148 1.6 327 -0.2 102500 52
2005-02-28 12:03 51°25.752 2°43.372 1 338 -0.1 102500 51
2005-02-28 12:04 51°25.885 2°43.596 1.5 309 -999 102490 52
2005-02-28 12:05 51°25.981 2°43.87 3 55 0.1 102500 51
2005-02-28 12:06 51°26.068 2°44.154 2.8 16 -999 102500 53
2005-02-28 12:07 51°26.172 2°44.421 2.7 20 -0.1 102500 53
2005-02-28 12:08 51°26.279 2°44.685 2.3 40 -0.2 102490 54
2005-02-28 12:09 51°26.386 2°44.954 3.7 31 -0.2 102490 54
2005-02-28 12:10 51°26.495 2°45.22 2 36 -0.3 102490 56
2005-02-28 12:11 51°26.603 2°45.488 3.2 43 -0.4 102480 56
2005-02-28 12:12 51°26.714 2°45.752 2.2 32 -0.4 102480 57
2005-02-28 12:13 51°26.823 2°46.017 2.4 20 -0.5 102480 55
2005-02-28 12:14 51°26.933 2°46.285 2.2 24 -0.5 102480 53
2005-02-28 12:15 51°27.045 2°46.552 2.4 42 -0.4 102470 59
2005-02-28 12:16 51°27.126 2°46.842 4.2 44 -0.4 102470 57
2005-02-28 12:17 51°27.203 2°47.147 5.1 49 -0.5 102460 56
2005-02-28 12:18 51°27.283 2°47.444 4.1 67 -0.6 102470 56
2005-02-28 12:19 51°27.364 2°47.741 5.4 59 -0.6 102460 59
2005-02-28 12:20 51°27.443 2°48.041 5 70 -0.6 102460 57
2005-02-28 12:21 51°27.524 2°48.34 4.1 73 -0.6 102470 57
2005-02-28 12:22 51°27.61 2°48.634 3.6 54 -0.7 102470 57
2005-02-28 12:23 51°27.7 2°48.927 4.3 60 -0.7 102460 60
2005-02-28 12:24 51°27.787 2°49.22 4.6 53 -0.7 102460 59
2005-02-28 12:25 51°27.874 2°49.514 5.1 57 -0.8 102460 57
2005-02-28 12:26 51°27.963 2°49.81 4.5 58 -0.8 102450 61
2005-02-28 12:27 51°28.031 2°50.117 7.4 63 -0.8 102450 59
2005-02-28 12:28 51°27.948 2°50.427 10.4 43 -0.9 102440 57
2005-02-28 12:29 51°27.785 2°50.657 10.8 43 -0.9 102440 58
2005-02-28 12:30 51°27.571 2°50.787 12.6 23 -0.8 102420 59
2005-02-28 12:31 51°27.344 2°50.86 13.1 25 -0.7 102450 58
2005-02-28 12:32 51°27.131 2°50.72 13.1 -999 -0.6 102430 56
2005-02-28 12:33 51°26.998 2°50.413 12.2 -999 -0.6 102440 57
2005-02-28 12:34 51°26.879 2°50.085 12.5 348 -0.6 102420 56
2005-02-28 12:35 51°26.771 2°49.752 13.6 345 -0.5 102420 53
2005-02-28 12:36 51°26.671 2°49.406 13.3 342 -0.5 102430 55
2005-02-28 12:37 51°26.577 2°49.061 13.4 344 -0.4 102400 59
2005-02-28 12:38 51°26.481 2°48.715 13.8 347 -0.4 102410 55
2005-02-28 12:39 51°26.411 2°48.453 10.8 344 -0.4 102430 56
2005-02-28 12:40 51°26.357 2°48.31 9.4 345 -0.4 102430 58
2005-02-28 12:41 51°26.316 2°48.198 8.2 349 -0.4 102440 54
2005-02-28 12:42 51°26.239 2°47.997 10.7 354 -0.4 102420 54
2005-02-28 12:43 51°26.152 2°47.723 10.1 346 -0.4 102410 54
2005-02-28 12:44 51°26.079 2°47.574 7.4 4 -0.4 102430 56
2005-02-28 12:45 51°26.015 2°47.511 6.6 22 -0.4 102430 58
2005-02-28 12:46 51°25.963 2°47.487 6.6 49 -0.5 102430 55
2005-02-28 12:47 51°25.92 2°47.486 6.7 49 -0.5 102420 60
2005-02-28 12:48 51°25.886 2°47.494 6 63 -0.7 102410 56
2005-02-28 12:49 51°25.858 2°47.506 4.6 60 -0.9 102420 55
2005-02-28 12:50 51°25.833 2°47.518 5 60 -1 102410 56
2005-02-28 12:51 51°25.812 2°47.531 7.1 62 -0.9 102410 56
2005-02-28 12:52 51°25.782 2°47.55 6.9 57 -0.9 102410 56
2005-02-28 12:53 51°25.709 2°47.521 9.6 357 -0.9 102400 61
2005-02-28 12:54 51°25.646 2°47.327 10.3 340 -0.8 102400 55
2005-02-28 12:55 51°25.603 2°47.02 14 342 -0.7 102380 54
2005-02-28 12:56 51°25.555 2°46.679 12.7 339 -0.7 102360 56
2005-02-28 12:57 51°25.492 2°46.439 11.1 348 -0.6 102380 57
2005-02-28 12:58 51°25.445 2°46.301 8 323 -0.5 102380 56
2005-02-28 12:59 51°25.416 2°46.082 11.2 340 -0.5 102360 55
2005-02-28 13:00 51°25.375 2°45.749 11.7 335 -0.5 102360 56
2005-02-28 13:01 51°25.265 2°45.444 13.1 351 -0.4 102350 57
2005-02-28 13:02 51°25.082 2°45.233 14.2 14 -0.5 102360 56
2005-02-28 13:03 51°24.861 2°45.131 13 11 -0.5 102360 56
2005-02-28 13:04 51°24.632 2°45.082 13.5 14 -0.5 102350 57
2005-02-28 13:05 51°24.404 2°45.094 13.3 24 -0.5 102350 55
2005-02-28 13:06 51°24.189 2°45.224 11.6 35 -0.5 102360 57
2005-02-28 13:07 51°24.096 2°45.524 5.2 48 -0.7 102370 57
2005-02-28 13:08 51°24.112 2°45.908 6 51 -0.8 102380 56
2005-02-28 13:09 51°24.123 2°46.282 6.1 39 -0.9 102360 54
2005-02-28 13:10 51°24.126 2°46.657 6.6 55 -0.9 102360 55
2005-02-28 13:11 51°24.13 2°47.032 6.4 56 -1 102360 56
2005-02-28 13:12 51°24.129 2°47.407 6.4 57 -1 102360 56
2005-02-28 13:13 51°24.131 2°47.784 5 56 -1 102350 55
2005-02-28 13:14 51°24.133 2°48.162 4.3 59 -1 102370 56
2005-02-28 13:15 51°24.134 2°48.544 6.1 57 -1 102350 59
2005-02-28 13:16 51°24.134 2°48.926 6.2 58 -1 102350 59
2005-02-28 13:17 51°24.131 2°49.309 6.8 57 -0.9 102350 57
2005-02-28 13:18 51°24.108 2°49.686 7 60 -0.9 102340 56
2005-02-28 13:19 51°24.062 2°50.062 7.5 61 -1 102330 57
2005-02-28 13:20 51°23.998 2°50.426 7.7 59 -1 102330 57
2005-02-28 13:21 51°23.872 2°50.749 9.1 41 -1 102330 57
2005-02-28 13:22 51°23.668 2°50.817 11.3 14 -1 102320 55
2005-02-28 13:23 51°23.48 2°50.635 11.1 4 -0.8 102320 55
2005-02-28 13:24 51°23.315 2°50.402 12.3 357 -0.8 102320 53
2005-02-28 13:25 51°23.154 2°50.164 11.3 7 -0.7 102310 55
2005-02-28 13:26 51°22.994 2°49.927 12 2 -0.7 102310 54
2005-02-28 13:27 51°22.825 2°49.711 11.5 20 -0.7 102300 54
2005-02-28 13:28 51°22.622 2°49.576 12.9 5 -0.7 102310 56
2005-02-28 13:29 51°22.418 2°49.443 4.4 14 -0.7 102300 54
2005-02-28 13:30 51°22.216 2°49.311 12 16 -0.7 102300 56
2005-02-28 13:31 51°22.016 2°49.183 11.7 12 -0.7 102310 55
2005-02-28 13:32 51°21.815 2°49.056 11.8 22 -0.7 102290 55
2005-02-28 13:33 51°21.617 2°48.928 10.9 13 -0.7 102290 55
2005-02-28 13:34 51°21.418 2°48.806 10.4 15 -0.7 102290 54
2005-02-28 13:35 51°21.219 2°48.684 11 11 -0.7 102290 53
2005-02-28 13:36 51°21.021 2°48.562 11.4 10 -0.7 102300 54
2005-02-28 13:37 51°20.824 2°48.441 12.2 12 -0.7 102290 53
2005-02-28 13:38 51°20.629 2°48.315 10.5 18 -0.7 102290 54
2005-02-28 13:39 51°20.44 2°48.162 12 6 -0.7 102290 54
2005-02-28 13:40 51°20.257 2°47.998 10.6 12 -0.8 102290 53
2005-02-28 13:41 51°20.076 2°47.833 11.3 13 -0.7 102280 54
2005-02-28 13:42 51°19.903 2°47.656 11.3 12 -0.7 102280 53
2005-02-28 13:43 51°19.731 2°47.48 10.2 12 -0.8 102280 55
2005-02-28 13:44 51°19.562 2°47.306 11.1 7 -0.8 102280 56
2005-02-28 13:45 51°19.399 2°47.12 12 12 -0.7 102270 55
2005-02-28 13:46 51°19.236 2°46.933 10 12 -0.7 102280 54
2005-02-28 13:47 51°19.075 2°46.742 12.1 13 -0.8 102280 55
2005-02-28 13:48 51°18.912 2°46.558 10.8 14 -0.8 102270 52
2005-02-28 13:49 51°18.75 2°46.374 10.8 16 -0.8 102280 53
2005-02-28 13:50 51°18.591 2°46.189 10.7 15 -0.9 102270 51
2005-02-28 13:51 51°18.432 2°46.003 10.9 9 -0.8 102270 52
2005-02-28 13:52 51°18.272 2°45.82 11.2 9 -0.8 102270 54
2005-02-28 13:53 51°18.114 2°45.637 12.3 11 -0.8 102260 52
2005-02-28 13:54 51°17.956 2°45.451 10.9 8 -0.8 102260 52
2005-02-28 13:55 51°17.797 2°45.263 10.6 15 -0.8 102260 53
2005-02-28 13:56 51°17.639 2°45.072 10.7 14 -0.8 102260 52
2005-02-28 13:57 51°17.479 2°44.883 11.4 10 -0.8 102250 52
2005-02-28 13:58 51°17.32 2°44.69 11.3 13 -0.8 102250 52
2005-02-28 13:59 51°17.159 2°44.495 10.2 11 -0.8 102250 52
2005-02-28 14:00 51°17.001 2°44.302 11.6 17 -0.8 102240 52
2005-02-28 14:01 51°16.836 2°44.118 11.7 15 -0.8 102240 52
2005-02-28 14:02 51°16.666 2°43.939 11.2 5 -0.7 102240 53
2005-02-28 14:03 51°16.49 2°43.774 11.4 20 -0.7 102240 52
2005-02-28 14:04 51°16.3 2°43.643 11.7 19 -0.7 102240 53
2005-02-28 14:05 51°16.101 2°43.559 10.6 18 -0.7 102250 52
2005-02-28 14:06 51°15.89 2°43.601 9.2 27 -0.7 102240 54
2005-02-28 14:07 51°15.699 2°43.794 7.9 45 -0.8 102240 51
2005-02-28 14:08 51°15.544 2°44.069 6.2 42 -0.9 102240 54
2005-02-28 14:09 51°15.434 2°44.416 7.1 31 -0.9 102250 53
2005-02-28 14:10 51°15.382 2°44.799 6.1 35 -1 102230 52
2005-02-28 14:11 51°15.361 2°45.203 6.1 37 -1 102240 52
2005-02-28 14:12 51°15.336 2°45.607 5.4 37 -1 102240 52
2005-02-28 14:13 51°15.309 2°46.009 5.3 38 -1.1 102230 51
2005-02-28 14:14 51°15.303 2°46.413 5.3 25 -1.1 102230 53
2005-02-28 14:15 51°15.323 2°46.827 5.1 33 -1 102240 52
2005-02-28 14:16 51°15.338 2°47.239 4.5 36 -1 102230 51
2005-02-28 14:17 51°15.352 2°47.644 4.4 23 -1 102240 52
2005-02-28 14:18 51°15.362 2°48.05 5.6 37 -0.9 102240 53
2005-02-28 14:19 51°15.373 2°48.452 4.4 23 -0.9 102230 52
2005-02-28 14:20 51°15.388 2°48.861 5.7 28 -0.9 102230 52
2005-02-28 14:21 51°15.399 2°49.275 5.1 29 -0.9 102230 53
2005-02-28 14:22 51°15.413 2°49.69 3.5 15 -0.9 102230 50
2005-02-28 14:23 51°15.425 2°50.103 4.5 20 -0.9 102230 53
2005-02-28 14:24 51°15.44 2°50.514 5.8 26 -0.9 102250 50
2005-02-28 14:25 51°15.438 2°50.921 5.8 27 -0.8 102230 51
2005-02-28 14:26 51°15.413 2°51.322 5.6 35 -0.8 102220 51
2005-02-28 14:27 51°15.393 2°51.724 6 35 -0.9 102220 51
2005-02-28 14:28 51°15.313 2°52.087 6.9 32 -1 102210 52
2005-02-28 14:29 51°15.215 2°52.369 4.3 58 -1 102220 50
2005-02-28 14:30 51°15.115 2°52.635 4.4 38 -1 102210 51
2005-02-28 14:31 51°15 2°52.944 4.8 31 -1 102210 50
2005-02-28 14:32 51°14.882 2°53.254 6.5 31 -0.9 102210 53
2005-02-28 14:33 51°14.764 2°53.557 6.1 35 -0.9 102200 52
2005-02-28 14:34 51°14.666 2°53.882 4.3 19 -0.9 102210 51
2005-02-28 14:35 51°14.577 2°54.228 4.2 38 -0.9 102210 51
2005-02-28 14:36 51°14.487 2°54.558 5 34 -0.8 102200 51
2005-02-28 14:37 51°14.4 2°54.881 5.2 36 -0.9 102210 51
2005-02-28 14:38 51°14.311 2°55.156 4.8 42 -0.9 102210 51
2005-02-28 14:39 51°14.202 2°55.34 4.2 56 -0.9 102210 50
2005-02-28 14:40 51°14.069 2°55.454 3.1 33 -0.9 102210 51
2005-02-28 14:41 51°13.932 2°55.558 2.7 47 -0.8 102210 48
2005-02-28 14:42 51°13.805 2°55.659 3.2 70 -0.7 102210 48
2005-02-28 14:43 51°13.712 2°55.79 1.9 70 -0.5 102210 48
2005-02-28 14:44 51°13.656 2°55.918 1 98 -0.5 102210 47
2005-02-28 14:45 51°13.616 2°56.035 1.4 145 -0.4 102210 47
2005-02-28 14:46 51°13.595 2°56.102 2.3 175 -0.3 102200 46
2005-02-28 14:47 51°13.595 2°56.103 4 160 -0.3 102200 46